Portada
METAR-TAF:

METAR-TAF

Aeroports :

Maringá, Paranà, Brasil

latitud: 23-25S, longitud: 051-57W, altitud: 542 m

Observació

L'informe es va fer fa 48 minuts, a les 20:00 UTC
Vent 2 kt del Nord-Est
Temperatura 23°C
Humitat 57%
Pressió 1020 hPa
Visibilitat 10 km o més
sense núvols per sota de 1500 mi sense presència de cumulonimbus.

METAR: SBMG 192000Z 05002KT CAVOK 23/14 Q1020

Hora: 17:48 (20:48 UTC)


TAF: manca

Observacions i pronòstics meteorològics de més de 4000 aeroports (METAR i TAF).

Les estacions disponibles són els punts grocs i vermells al mapa.

Posi el ratolí al punt desitjat per veure el nom de l'estació.

Feu clic per veure les observacions i els pronòstics meteorològics.

Per canviar el mapa: feu clic els botons verds amb una creu de color negre per apropar; al botó verd amb un guió per allunyar la imatge; o en les fletxes verdes per a mapes adjacents.


METAR-TAF: